Map

Track Data

SID SEASON NUMBER BASIN SUBBASIN NAME ISO_TIME NATURE LAT LON WMO_WIND WMO_PRES WMO_AGENCY TRACK_TYPE DIST2LAND LANDFALL IFLAG USA_AGENCY USA_ATCF_ID USA_LAT USA_LON USA_RECORD USA_STATUS USA_WIND USA_PRES USA_SSHS USA_R34_NE USA_R34_SE USA_R34_SW USA_R34_NW USA_R50_NE USA_R50_SE USA_R50_SW USA_R50_NW USA_R64_NE USA_R64_SE USA_R64_SW USA_R64_NW USA_POCI USA_ROCI USA_RMW USA_EYE TOKYO_LAT TOKYO_LON TOKYO_GRADE TOKYO_WIND TOKYO_PRES TOKYO_R50_DIR TOKYO_R50_LONG TOKYO_R50_SHORT TOKYO_R30_DIR TOKYO_R30_LONG TOKYO_R30_SHORT TOKYO_LAND CMA_LAT CMA_LON CMA_CAT CMA_WIND CMA_PRES HKO_LAT HKO_LON HKO_CAT HKO_WIND HKO_PRES NEWDELHI_LAT NEWDELHI_LON NEWDELHI_GRADE NEWDELHI_WIND NEWDELHI_PRES NEWDELHI_CI NEWDELHI_DP NEWDELHI_POCI REUNION_LAT REUNION_LON REUNION_TYPE REUNION_WIND REUNION_PRES REUNION_TNUM REUNION_CI REUNION_RMW REUNION_R34_NE REUNION_R34_SE REUNION_R34_SW REUNION_R34_NW REUNION_R50_NE REUNION_R50_SE REUNION_R50_SW REUNION_R50_NW REUNION_R64_NE REUNION_R64_SE REUNION_R64_SW REUNION_R64_NW BOM_LAT BOM_LON BOM_TYPE BOM_WIND BOM_PRES BOM_TNUM BOM_CI BOM_RMW BOM_R34_NE BOM_R34_SE BOM_R34_SW BOM_R34_NW BOM_R50_NE BOM_R50_SE BOM_R50_SW BOM_R50_NW BOM_R64_NE BOM_R64_SE BOM_R64_SW BOM_R64_NW BOM_ROCI BOM_POCI BOM_EYE BOM_POS_METHOD BOM_PRES_METHOD NADI_LAT NADI_LON NADI_CAT NADI_WIND NADI_PRES WELLINGTON_LAT WELLINGTON_LON WELLINGTON_WIND WELLINGTON_PRES DS824_LAT DS824_LON DS824_STAGE DS824_WIND DS824_PRES TD9636_LAT TD9636_LON TD9636_STAGE TD9636_WIND TD9636_PRES TD9635_LAT TD9635_LON TD9635_WIND TD9635_PRES TD9635_ROCI NEUMANN_LAT NEUMANN_LON NEUMANN_CLASS NEUMANN_WIND NEUMANN_PRES MLC_LAT MLC_LON MLC_CLASS MLC_WIND MLC_PRES USA_GUST BOM_GUST BOM_GUST_PER REUNION_GUST REUNION_GUST_PER USA_SEAHGT USA_SEARAD_NE USA_SEARAD_SE USA_SEARAD_SW USA_SEARAD_NW STORM_SPEED STORM_DIR
1972264N17092 1972 98 NI BB NOT_NAMED 1972-09-20 03:00:00 NR 17.0000 91.5000 main 303 303 __________O___ -1 17.0000 91.5000 1 13 305
1972264N17092 1972 98 NI BB NOT_NAMED 1972-09-20 06:00:00 TS 17.3788 90.9409 main 345 345 O________OP___ jtwc_io IO101972 17.4000 90.9000 -1 17.4000 90.9000 TC 17.3576 90.9819 1 12 305
1972264N17092 1972 98 NI BB NOT_NAMED 1972-09-20 09:00:00 TS 17.7108 90.4531 main 367 367 P________PP___ IO101972 17.7253 90.4329 -1 17.7253 90.4329 TC 17.6916 90.4799 1 11 305
1972264N17092 1972 98 NI BB NOT_NAMED 1972-09-20 12:00:00 TS 17.9919 90.0052 main 382 382 O________OP___ jtwc_io IO101972 18.0000 90.0000 XX 55 -5 18.0000 90.0000 TC 55 17.9797 90.0130 1 9 301
1972264N17092 1972 98 NI BB NOT_NAMED 1972-09-20 15:00:00 TS 18.1916 89.6182 main 383 352 P________PO___ IO101972 18.1874 89.6273 XX 55 -5 18.1874 89.6273 TC 55 18.2000 89.6000 2 8 295
1972264N17092 1972 98 NI BB NOT_NAMED 1972-09-20 18:00:00 TS 18.3130 89.2843 main 352 321 O________OP___ jtwc_io IO101972 18.3000 89.3000 XX 55 -5 18.3000 89.3000 TC 55 18.3390 89.2528 2 6 287
1972264N17092 1972 98 NI BB NOT_NAMED 1972-09-20 21:00:00 TS 18.3771 88.9795 main 321 298 P________PP___ IO101972 18.3574 88.9924 XX 57 -5 18.3574 88.9924 TC 57 18.4166 88.9538 2 6 281
1972264N17092 1972 98 NI BB NOT_NAMED 1972-09-21 00:00:00 TS 18.4203 88.6927 main 298 268 O________OP___ jtwc_io IO101972 18.4000 88.7000 XX 60 -5 18.4000 88.7000 TC 60 18.4610 88.6780 2 6 283
1972264N17092 1972 98 NI BB NOT_NAMED 1972-09-21 03:00:00 TS 18.4999 88.4050 main 268 237 P________PO___ IO101972 18.4999 88.4075 XX 62 -5 18.4999 88.4075 TC 62 18.5000 88.4000 2 6 287
1972264N17092 1972 98 NI BB NOT_NAMED 1972-09-21 06:00:00 TS 18.5943 88.0995 main 237 206 O________OP___ jtwc_io IO101972 18.6000 88.1000 XX 65 -5 18.6000 88.1000 TC 65 18.5828 88.0984 2 6 285
1972264N17092 1972 98 NI BB NOT_NAMED 1972-09-21 09:00:00 TS 18.6598 87.7675 main 206 179 P________PP___ IO101972 18.6575 87.7574 XX 65 -5 18.6575 87.7574 TC 65 18.6645 87.7875 2 7 280
1972264N17092 1972 98 NI BB NOT_NAMED 1972-09-21 12:00:00 TS 18.7130 87.4193 main 179 152 O________OP___ jtwc_io IO101972 18.7000 87.4000 XX 65 -5 18.7000 87.4000 TC 65 18.7390 87.4578 2 7 279
1972264N17092 1972 98 NI BB NOT_NAMED 1972-09-21 15:00:00 TS 18.7666 87.0766 main 152 137 P________PO___ IO101972 18.7498 87.0650 XX 67 -5 18.7498 87.0650 TC 67 18.8000 87.1000 4 7 278
1972264N17092 1972 98 NI BB NOT_NAMED 1972-09-21 18:00:00 TS 18.8078 86.6957 main 137 123 O________OP___ jtwc_io IO101972 18.8000 86.7000 XX 70 -5 18.8000 86.7000 TC 70 18.8234 86.6871 4 8 276
1972264N17092 1972 98 NI BB NOT_NAMED 1972-09-21 21:00:00 TS 18.8452 86.2548 main 123 88 P________PP___ IO101972 18.8500 86.2575 XX 67 -5 18.8500 86.2575 TC 67 18.8354 86.2494 4 8 275
1972264N17092 1972 98 NI BB NOT_NAMED 1972-09-22 00:00:00 TS 18.8849 85.8040 main 88 69 O________OP___ jtwc_io IO101972 18.9000 85.8000 XX 65 -5 18.9000 85.8000 TC 65 18.8546 85.8121 4 8 276
1972264N17092 1972 98 NI BB NOT_NAMED 1972-09-22 03:00:00 TS 18.9283 85.3900 main 69 30 P________PO___ IO101972 18.9424 85.3849 XX -5 18.9424 85.3849 TC 18.9000 85.4000 4 8 278
1972264N17092 1972 98 NI BB NOT_NAMED 1972-09-22 06:00:00 TS 18.9946 85.0060 main 30 0 O________OP___ jtwc_io IO101972 19.0000 85.0000 -1 19.0000 85.0000 TC 18.9839 85.0180 4 7 282
1972264N17092 1972 98 NI BB NOT_NAMED 1972-09-22 09:00:00 TS 19.0841 84.6309 main 0 0 P________PP___ IO101972 19.0775 84.6125 -1 19.0775 84.6125 TC 19.0974 84.6677 4 7 289
1972264N17092 1972 98 NI BB NOT_NAMED 1972-09-22 12:00:00 TS 19.2124 84.3195 main 0 0 O________OP___ jtwc_io IO101972 19.2000 84.3000 -1 19.2000 84.3000 TC 19.2371 84.3586 4 6 302
1972264N17092 1972 98 NI BB NOT_NAMED 1972-09-22 15:00:00 TS 19.3899 84.1133 main 0 0 P________PO___ IO101972 19.3849 84.1199 -1 19.3849 84.1199 TC 19.4000 84.1000 2 5 319
1972264N17092 1972 98 NI BB NOT_NAMED 1972-09-22 18:00:00 TS 19.5954 83.9665 main 0 0 O________OP___ jtwc_io IO101972 19.6000 84.0000 -1 19.6000 84.0000 TC 19.5862 83.8995 2 5 326
1972264N17092 1972 98 NI BB NOT_NAMED 1972-09-22 21:00:00 TS 19.8024 83.8157 main 0 0 P________PP___ IO101972 19.8075 83.8500 -1 19.8075 83.8500 TC 19.7921 83.7473 2 5 326
1972264N17092 1972 98 NI BB NOT_NAMED 1972-09-23 00:00:00 TS 20.0006 83.6738 main 0 0 O________OP___ jtwc_io IO101972 20.0000 83.7000 -1 20.0000 83.7000 TC 20.0019 83.6214 2 5 324
1972264N17092 1972 98 NI BB NOT_NAMED 1972-09-23 03:00:00 TS 20.1717 83.5333 main 0 0 P________PO___ IO101972 20.1575 83.5499 -1 20.1575 83.5499 TC 20.2000 83.5000 1 4 319
1972264N17092 1972 98 NI BB NOT_NAMED 1972-09-23 06:00:00 TS 20.3215 83.3779 main 0 0 O________OP___ jtwc_io IO101972 20.3000 83.4000 -1 20.3000 83.4000 TC 20.3644 83.3337 1 4 316
1972264N17092 1972 98 NI BB NOT_NAMED 1972-09-23 09:00:00 TS 20.4717 83.2233 main 0 0 P________PP___ IO101972 20.4500 83.2500 -1 20.4500 83.2500 TC 20.5151 83.1700 1 4 316
1972264N17092 1972 98 NI BB NOT_NAMED 1972-09-23 12:00:00 TS 20.6194 83.0738 main 0 0 O________OP___ jtwc_io IO101972 20.6000 83.1000 -1 20.6000 83.1000 TC 20.6582 83.0213 1 4 316
1972264N17092 1972 98 NI BB NOT_NAMED 1972-09-23 15:00:00 TS 20.7667 82.9233 main 0 0 P________PO___ IO101972 20.7500 82.9350 -1 20.7500 82.9350 TC 20.8000 82.9000 1 4 319
1972264N17092 1972 98 NI BB NOT_NAMED 1972-09-23 18:00:00 TS 20.8990 82.8083 main 0 0 O________OP___ jtwc_io IO101972 20.9000 82.8000 -1 20.9000 82.8000 TC 20.8971 82.8250 1 3 328
1972264N17092 1972 98 NI BB NOT_NAMED 1972-09-23 21:00:00 TS 21.0241 82.7489 main 0 0 P________PP___ IO101972 21.0350 82.7349 -1 21.0350 82.7349 TC 21.0024 82.7770 1 3 344
1972264N17092 1972 98 NI BB NOT_NAMED 1972-09-24 00:00:00 TS 21.1855 82.7135 main 0 0 O________OP___ jtwc_io IO101972 21.2000 82.7000 -1 21.2000 82.7000 TC 21.1565 82.7405 1 4 347
1972264N17092 1972 98 NI BB NOT_NAMED 1972-09-24 03:00:00 TS 21.3883 82.6666 main 0 0 P________PO___ IO101972 21.3825 82.6499 -1 21.3825 82.6499 TC 21.4000 82.7000 1 6 349
1972264N17092 1972 98 NI BB NOT_NAMED 1972-09-24 06:00:00 TS 21.7394 82.5962 main 0 0 O________OP___ jtwc_io IO101972 21.7000 82.6000 -1 21.7000 82.6000 TC 21.8181 82.5886 1 9 352
1972264N17092 1972 98 NI BB NOT_NAMED 1972-09-24 09:00:00 TS 22.2967 82.5256 main 0 0 P________PP___ IO101972 22.2850 82.5500 -1 22.2850 82.5500 TC 22.3200 82.4766 1 12 354
1972264N17092 1972 98 NI BB NOT_NAMED 1972-09-24 12:00:00 TS 22.8789 82.4670 main 0 0 O________OP___ jtwc_io IO101972 22.9000 82.5000 -1 22.9000 82.5000 TC 22.8368 82.4011 1 10 354
1972264N17092 1972 98 NI BB NOT_NAMED 1972-09-24 15:00:00 TS 23.3066 82.4035 main 0 0 P________PO___ IO101972 23.3099 82.4052 -1 23.3099 82.4052 TC 23.3000 82.4000 1 7 357
1972264N17092 1972 98 NI BB NOT_NAMED 1972-09-24 18:00:00 TS 23.5980 82.4309 main 0 0 O________OP___ jtwc_io IO101972 23.6000 82.4000 -1 23.6000 82.4000 TC 23.5941 82.4927 1 5 21
1972264N17092 1972 98 NI BB NOT_NAMED 1972-09-24 21:00:00 TS 23.8149 82.6202 main 0 0 P________PP___ IO101972 23.8075 82.5975 -1 23.8075 82.5975 TC 23.8296 82.6656 1 6 46
1972264N17092 1972 98 NI BB NOT_NAMED 1972-09-25 00:00:00 TS 24.0168 82.9019 main 0 0 O________OP___ jtwc_io IO101972 24.0000 82.9000 -1 24.0000 82.9000 TC 24.0503 82.9058 1 7 48
1972264N17092 1972 98 NI BB NOT_NAMED 1972-09-25 03:00:00 TS 24.2799 83.1852 main 0 0 P________PO___ IO101972 24.2699 83.1777 -1 24.2699 83.1777 TC 24.3000 83.2000 1 8 44
1972264N17092 1972 98 NI BB NOT_NAMED 1972-09-25 06:00:00 TS 24.6049 83.5145 main 0 0 O________OP___ jtwc_io IO101972 24.6000 83.5000 -1 24.6000 83.5000 TC 24.6121 83.5363 1 10 42
1972264N17092 1972 98 NI BB NOT_NAMED 1972-09-25 09:00:00 TS 24.9824 83.8916 main 0 0 P________PP___ IO101972 24.9853 83.8818 -1 24.9853 83.8818 TC 24.9786 83.9047 1 11 42
1972264N17092 1972 98 NI BB NOT_NAMED 1972-09-25 12:00:00 TS 25.3903 84.2980 main 0 0 O________OP___ jtwc_io IO101972 25.4000 84.3000 -1 25.4000 84.3000 TC 25.3807 84.2959 1 11 42
1972264N17092 1972 98 NI BB NOT_NAMED 1972-09-25 15:00:00 NR 25.8000 84.7000 main 0 __________O___ IO101972 -1 TC 25.8000 84.7000 1 11 41

About IBTrACS Database

This database is a web-friendly format of International Best Track Archive for Climate Stewardship (IBTrACS), a global best track data archive curated by NOAA dating back to 1842.

Updated: 2021-10-25